Time;durP1;ratioP1;P1;durP2;ratioP2;P2;SDS_P1;SDS_P2;PMS_P1;PMS_P2;Temp;Humidity;BMP_temperature;BMP_pressure;BME280_temperature;BME280_humidity;BME280_pressure;Samples;Min_cycle;Max_cycle;Signal;HPM_P1;HPM_P2
2023/12/27 00:02:04;;;;;;;48.42;34.28;;;10.90;99.90;;;;;;5070633;28;20147;-79
2023/12/27 00:04:30;;;;;;;53.03;38.22;;;10.90;99.90;;;;;;5059920;28;20033;-78
2023/12/27 00:06:56;;;;;;;59.40;41.13;;;10.90;99.90;;;;;;5055410;28;20364;-78
2023/12/27 00:09:23;;;;;;;53.15;38.20;;;10.80;99.90;;;;;;5063081;28;20028;-79
2023/12/27 00:11:49;;;;;;;57.42;38.50;;;10.90;99.90;;;;;;5074286;28;20035;-79
2023/12/27 00:14:15;;;;;;;52.00;35.47;;;10.90;99.90;;;;;;5057729;28;20037;-79
2023/12/27 00:16:41;;;;;;;55.63;38.90;;;10.90;99.90;;;;;;5071193;28;20036;-79
2023/12/27 00:19:07;;;;;;;49.33;35.45;;;10.90;99.90;;;;;;5062155;28;20033;-79
2023/12/27 00:21:33;;;;;;;60.17;40.05;;;10.90;99.90;;;;;;5063810;28;20366;-79
2023/12/27 00:23:58;;;;;;;71.00;49.95;;;10.90;99.90;;;;;;5063906;28;20461;-79
2023/12/27 00:26:24;;;;;;;52.65;36.53;;;10.80;99.90;;;;;;5059273;28;20034;-79
2023/12/27 00:28:50;;;;;;;54.78;38.38;;;10.80;99.90;;;;;;5063831;28;20041;-79
2023/12/27 00:31:15;;;;;;;47.90;34.67;;;10.80;99.90;;;;;;5064876;28;20060;-78
2023/12/27 00:33:41;;;;;;;68.85;49.20;;;10.80;99.90;;;;;;5056376;28;20035;-79
2023/12/27 00:36:08;;;;;;;72.97;51.25;;;10.80;99.90;;;;;;5069721;28;20086;-78
2023/12/27 00:38:37;;;;;;;50.13;34.40;;;10.80;99.90;;;;;;5059248;28;20461;-78
2023/12/27 00:41:04;;;;;;;54.85;37.13;;;10.70;99.90;;;;;;5054469;28;20024;-78
2023/12/27 00:43:30;;;;;;;60.08;41.95;;;10.70;99.90;;;;;;5065693;28;20037;-79
2023/12/27 00:45:55;;;;;;;54.67;36.33;;;10.70;99.90;;;;;;5064698;28;20028;-79
2023/12/27 00:48:21;;;;;;;50.63;37.13;;;10.80;99.90;;;;;;5062876;28;20032;-78
2023/12/27 00:50:47;;;;;;;57.55;39.20;;;10.80;99.90;;;;;;5063319;28;20062;-80
2023/12/27 00:53:13;;;;;;;53.25;38.35;;;10.80;99.90;;;;;;5068639;28;20103;-80
2023/12/27 00:55:38;;;;;;;63.72;40.47;;;10.90;99.90;;;;;;5054729;28;20021;-79
2023/12/27 00:58:04;;;;;;;53.65;38.65;;;10.90;99.90;;;;;;5065924;28;20036;-79
2023/12/27 01:00:30;;;;;;;50.22;35.58;;;10.90;99.90;;;;;;5061897;28;20033;-79
2023/12/27 01:02:56;;;;;;;56.15;37.72;;;10.90;99.90;;;;;;5053416;28;20108;-79
2023/12/27 01:05:21;;;;;;;49.42;37.33;;;10.90;99.90;;;;;;5069092;28;20039;-79
2023/12/27 01:07:47;;;;;;;51.08;37.35;;;10.90;99.90;;;;;;5072793;28;20044;-79
2023/12/27 01:10:14;;;;;;;52.30;36.63;;;10.90;99.90;;;;;;5046988;28;20028;-80
2023/12/27 01:12:40;;;;;;;52.53;36.28;;;10.80;99.90;;;;;;5055447;28;20029;-79
2023/12/27 01:15:06;;;;;;;50.58;36.70;;;10.80;99.90;;;;;;5055088;28;20087;-79
2023/12/27 01:17:32;;;;;;;55.05;37.95;;;10.80;99.90;;;;;;5071929;28;20033;-79
2023/12/27 01:19:58;;;;;;;50.10;36.92;;;10.90;99.90;;;;;;5070377;28;20020;-80
2023/12/27 01:22:24;;;;;;;57.78;38.58;;;10.90;99.90;;;;;;5058981;28;20043;-79
2023/12/27 01:24:49;;;;;;;57.63;40.03;;;10.90;99.90;;;;;;5061375;28;20025;-79
2023/12/27 01:27:15;;;;;;;58.08;39.70;;;10.90;99.90;;;;;;5066503;28;20136;-79
2023/12/27 01:29:41;;;;;;;51.58;36.63;;;11.00;99.90;;;;;;5053363;28;20036;-78
2023/12/27 01:32:07;;;;;;;59.15;41.63;;;10.90;99.90;;;;;;5061319;28;20055;-79
2023/12/27 01:34:32;;;;;;;48.95;34.53;;;10.90;99.90;;;;;;5063110;28;20027;-78
2023/12/27 01:36:58;;;;;;;55.10;38.20;;;10.90;99.90;;;;;;5054201;28;20385;-78
2023/12/27 01:39:24;;;;;;;54.28;38.00;;;10.90;99.90;;;;;;5052834;28;20174;-78
2023/12/27 01:41:49;;;;;;;56.03;40.47;;;10.90;99.90;;;;;;5069550;28;20024;-78
2023/12/27 01:44:15;;;;;;;58.30;34.47;;;11.00;99.90;;;;;;5072040;28;20024;-77
2023/12/27 01:46:41;;;;;;;54.90;38.08;;;11.00;99.90;;;;;;5058110;28;20029;-78
2023/12/27 01:49:07;;;;;;;51.67;37.90;;;11.00;99.90;;;;;;5070463;28;20044;-78
2023/12/27 01:51:33;;;;;;;56.25;40.53;;;11.00;99.90;;;;;;5055745;28;20021;-78
2023/12/27 01:54:02;;;;;;;48.38;34.67;;;11.00;99.90;;;;;;5064210;28;20028;-78
2023/12/27 01:56:28;;;;;;;53.45;37.17;;;11.00;99.90;;;;;;5064864;28;20033;-78
2023/12/27 01:58:54;;;;;;;51.30;36.58;;;11.00;99.90;;;;;;5060771;28;20401;-77
2023/12/27 02:01:20;;;;;;;56.47;38.33;;;11.00;99.90;;;;;;5059371;28;20657;-77
2023/12/27 02:03:46;;;;;;;56.95;39.50;;;11.00;99.90;;;;;;5039770;28;20116;-77
2023/12/27 02:06:12;;;;;;;52.00;37.95;;;11.10;99.90;;;;;;5062351;28;20418;-79
2023/12/27 02:08:38;;;;;;;49.55;35.13;;;11.00;99.90;;;;;;5052498;28;20037;-79
2023/12/27 02:11:04;;;;;;;52.83;36.72;;;11.10;99.90;;;;;;5052700;28;20412;-79
2023/12/27 02:13:30;;;;;;;54.92;37.75;;;11.10;99.90;;;;;;5070938;28;20040;-79
2023/12/27 02:15:55;;;;;;;54.72;37.17;;;11.00;99.90;;;;;;5065530;28;20045;-79
2023/12/27 02:18:22;;;;;;;54.03;38.35;;;11.10;99.90;;;;;;5072058;28;20377;-79
2023/12/27 02:20:48;;;;;;;52.17;38.13;;;11.10;99.90;;;;;;5056933;28;20377;-79
2023/12/27 02:23:17;;;;;;;53.42;39.03;;;11.00;99.90;;;;;;5052075;28;20055;-80
2023/12/27 02:25:44;;;;;;;49.47;36.03;;;11.00;99.90;;;;;;5068163;28;20071;-79
2023/12/27 02:28:09;;;;;;;54.20;37.67;;;11.00;99.90;;;;;;5060018;28;20070;-78
2023/12/27 02:30:36;;;;;;;56.55;39.47;;;11.00;99.90;;;;;;5063763;28;20024;-78
2023/12/27 02:33:02;;;;;;;52.70;35.67;;;11.10;99.90;;;;;;5070877;28;20029;-78
2023/12/27 02:35:28;;;;;;;53.17;38.25;;;11.00;99.90;;;;;;5065413;28;20059;-79
2023/12/27 02:37:54;;;;;;;52.20;36.70;;;11.00;99.90;;;;;;5067412;28;20100;-78
2023/12/27 02:40:20;;;;;;;52.75;37.08;;;11.00;99.90;;;;;;5056212;28;20032;-78
2023/12/27 02:42:46;;;;;;;53.15;38.63;;;11.00;99.90;;;;;;5070237;28;20421;-78
2023/12/27 02:45:12;;;;;;;57.67;38.97;;;11.00;99.90;;;;;;5070236;28;20036;-78
2023/12/27 02:47:38;;;;;;;50.70;36.65;;;11.00;99.90;;;;;;5063897;28;20021;-78
2023/12/27 02:50:04;;;;;;;54.20;39.05;;;11.00;99.90;;;;;;5065653;28;20103;-78
2023/12/27 02:52:30;;;;;;;53.95;38.22;;;11.00;99.90;;;;;;5053482;28;20029;-78
2023/12/27 02:54:55;;;;;;;55.55;39.00;;;11.00;99.90;;;;;;5053115;28;20025;-78
2023/12/27 02:57:21;;;;;;;50.03;37.88;;;11.00;99.90;;;;;;5066237;28;20043;-78
2023/12/27 02:59:47;;;;;;;52.33;37.17;;;11.00;99.90;;;;;;5066130;28;20043;-78
2023/12/27 03:02:13;;;;;;;58.55;40.22;;;11.00;99.90;;;;;;5059405;28;20465;-78
2023/12/27 03:04:38;;;;;;;60.25;39.40;;;11.00;99.90;;;;;;5063734;28;20021;-78
2023/12/27 03:07:04;;;;;;;61.13;39.80;;;11.10;99.90;;;;;;5061699;28;20052;-78
2023/12/27 03:09:30;;;;;;;59.08;38.50;;;11.00;99.90;;;;;;5056675;28;20480;-78
2023/12/27 03:11:56;;;;;;;56.33;39.63;;;11.00;99.90;;;;;;5060795;28;20025;-77
2023/12/27 03:14:22;;;;;;;55.58;38.15;;;11.10;99.90;;;;;;5057149;28;20029;-77
2023/12/27 03:16:48;;;;;;;55.28;38.00;;;11.00;99.90;;;;;;5061713;28;20044;-78
2023/12/27 03:19:13;;;;;;;54.83;37.95;;;11.00;99.90;;;;;;5057042;28;20077;-79
2023/12/27 03:21:39;;;;;;;52.42;36.75;;;11.00;99.90;;;;;;5069882;28;20028;-79
2023/12/27 03:24:05;;;;;;;51.67;36.67;;;11.00;99.90;;;;;;5067299;28;20490;-79
2023/12/27 03:26:31;;;;;;;53.30;38.92;;;11.00;99.90;;;;;;5059980;28;20036;-80
2023/12/27 03:28:57;;;;;;;51.05;36.45;;;11.00;99.90;;;;;;5068083;28;20539;-81
2023/12/27 03:31:28;;;;;;;52.60;37.25;;;11.00;99.90;;;;;;5069944;28;20032;-80
2023/12/27 03:33:58;;;;;;;52.92;38.78;;;11.00;99.90;;;;;;5065483;28;20024;-80
2023/12/27 03:36:24;;;;;;;51.25;36.55;;;11.00;99.90;;;;;;5061063;28;20044;-79
2023/12/27 03:38:50;;;;;;;47.35;35.42;;;11.00;99.90;;;;;;5065655;28;20041;-80
2023/12/27 03:41:16;;;;;;;53.17;37.38;;;11.00;99.90;;;;;;5074650;28;20024;-80
2023/12/27 03:43:42;;;;;;;51.85;38.65;;;11.00;99.90;;;;;;5071764;28;20476;-80
2023/12/27 03:46:07;;;;;;;52.67;37.38;;;11.00;99.90;;;;;;5074021;28;20036;-80
2023/12/27 03:48:33;;;;;;;55.92;37.70;;;11.00;99.90;;;;;;5066261;28;20021;-80
2023/12/27 03:50:59;;;;;;;59.72;38.60;;;11.00;99.90;;;;;;5058865;28;20523;-82
2023/12/27 03:53:25;;;;;;;52.78;38.80;;;11.00;99.90;;;;;;5069945;28;20062;-81
2023/12/27 03:55:50;;;;;;;55.33;38.67;;;11.00;99.90;;;;;;5065440;28;20460;-81
2023/12/27 03:58:16;;;;;;;50.53;33.83;;;11.00;99.90;;;;;;5063029;28;20033;-80
2023/12/27 04:00:42;;;;;;;49.22;35.33;;;11.00;99.90;;;;;;5061681;28;20049;-80
2023/12/27 04:03:08;;;;;;;52.53;38.85;;;11.00;99.90;;;;;;5071184;28;20040;-80
2023/12/27 04:05:33;;;;;;;55.22;37.28;;;11.00;99.90;;;;;;5064137;28;20029;-80
2023/12/27 04:07:59;;;;;;;51.75;37.10;;;11.00;99.90;;;;;;5059990;28;20049;-81
2023/12/27 04:10:25;;;;;;;55.13;37.53;;;11.00;99.90;;;;;;5073092;28;20032;-80
2023/12/27 04:12:51;;;;;;;53.15;38.00;;;11.00;99.90;;;;;;5063726;28;20039;-80
2023/12/27 04:15:17;;;;;;;57.17;38.42;;;11.00;99.90;;;;;;5072288;28;20028;-81
2023/12/27 04:17:43;;;;;;;48.95;34.60;;;11.00;99.90;;;;;;5045649;28;20021;-81
2023/12/27 04:20:09;;;;;;;45.53;33.63;;;10.90;99.90;;;;;;5054433;28;20044;-80
2023/12/27 04:22:34;;;;;;;56.15;37.15;;;11.00;99.90;;;;;;5070274;28;20056;-80
2023/12/27 04:25:03;;;;;;;49.63;36.00;;;10.90;99.90;;;;;;5069568;28;20052;-79
2023/12/27 04:27:28;;;;;;;51.58;36.05;;;11.00;99.90;;;;;;5073252;28;20013;-79
2023/12/27 04:29:54;;;;;;;54.97;37.33;;;10.90;99.90;;;;;;5068515;28;20032;-80
2023/12/27 04:32:20;;;;;;;56.70;37.88;;;11.00;99.90;;;;;;5071541;28;20029;-80
2023/12/27 04:34:45;;;;;;;56.83;36.70;;;11.00;99.90;;;;;;5044879;28;20370;-80
2023/12/27 04:37:11;;;;;;;54.00;37.42;;;11.00;99.90;;;;;;5060218;28;20075;-80
2023/12/27 04:39:37;;;;;;;53.00;36.28;;;11.00;99.90;;;;;;5060675;28;20037;-80
2023/12/27 04:42:02;;;;;;;47.97;34.88;;;11.00;99.90;;;;;;5062966;28;20033;-79
2023/12/27 04:44:28;;;;;;;52.50;36.08;;;11.00;99.90;;;;;;5055948;28;20031;-80
2023/12/27 04:46:54;;;;;;;52.55;36.53;;;11.00;99.90;;;;;;5058560;28;20124;-80
2023/12/27 04:49:19;;;;;;;54.95;37.03;;;11.00;99.90;;;;;;5069090;28;20048;-80
2023/12/27 04:51:46;;;;;;;51.42;37.38;;;11.00;99.90;;;;;;5061147;28;20031;-80
2023/12/27 04:54:12;;;;;;;50.53;35.88;;;11.00;99.90;;;;;;5058217;28;20036;-79
2023/12/27 04:56:37;;;;;;;49.33;35.53;;;11.10;99.90;;;;;;5042403;28;20033;-79
2023/12/27 04:59:03;;;;;;;53.85;37.85;;;11.10;99.90;;;;;;5071109;28;20091;-79
2023/12/27 05:01:29;;;;;;;47.50;35.72;;;11.00;99.90;;;;;;5064335;28;20051;-79
2023/12/27 05:03:57;;;;;;;51.60;37.55;;;11.10;99.90;;;;;;5061087;28;20044;-79
2023/12/27 05:06:24;;;;;;;50.70;36.15;;;11.10;99.90;;;;;;5064632;28;20049;-79
2023/12/27 05:08:50;;;;;;;50.13;34.42;;;11.10;99.90;;;;;;5070221;28;20032;-79
2023/12/27 05:11:18;;;;;;;48.35;34.85;;;11.10;99.90;;;;;;5058152;28;20090;-79
2023/12/27 05:13:44;;;;;;;46.10;34.15;;;11.10;99.90;;;;;;5060751;28;20021;-79
2023/12/27 05:16:10;;;;;;;52.03;35.15;;;11.10;99.90;;;;;;5062234;28;20050;-79
2023/12/27 05:18:38;;;;;;;48.85;34.30;;;11.20;99.90;;;;;;5066932;28;20028;-79
2023/12/27 05:21:04;;;;;;;45.78;32.22;;;11.20;99.90;;;;;;5064179;28;20033;-78
2023/12/27 05:23:29;;;;;;;48.67;34.13;;;11.20;99.90;;;;;;5058627;28;20032;-79
2023/12/27 05:25:55;;;;;;;48.90;34.40;;;11.20;99.90;;;;;;5071273;28;20073;-79
2023/12/27 05:28:21;;;;;;;60.17;43.88;;;11.20;99.90;;;;;;5059877;28;20031;-79
2023/12/27 05:30:46;;;;;;;49.63;35.20;;;11.20;99.90;;;;;;5068376;28;20082;-78
2023/12/27 05:33:12;;;;;;;46.70;34.08;;;11.10;99.90;;;;;;5069128;28;20031;-79
2023/12/27 05:35:37;;;;;;;42.55;32.30;;;11.10;99.90;;;;;;5059472;28;20464;-79
2023/12/27 05:38:03;;;;;;;42.75;32.13;;;11.00;99.90;;;;;;5070113;28;20100;-80
2023/12/27 05:40:29;;;;;;;45.53;32.40;;;10.90;99.90;;;;;;5066304;28;20393;-81
2023/12/27 05:42:54;;;;;;;48.78;34.50;;;10.90;99.90;;;;;;5044773;28;20024;-80
2023/12/27 05:45:20;;;;;;;46.08;33.95;;;10.80;99.90;;;;;;5055329;28;20067;-80
2023/12/27 05:47:46;;;;;;;46.00;32.85;;;10.80;99.90;;;;;;5068258;28;20021;-80
2023/12/27 05:50:12;;;;;;;43.70;33.17;;;10.80;99.90;;;;;;5068844;28;20060;-80
2023/12/27 05:52:39;;;;;;;45.92;33.78;;;10.80;99.90;;;;;;5069496;28;20024;-80
2023/12/27 05:55:05;;;;;;;43.92;32.58;;;10.80;99.90;;;;;;5068905;28;20078;-80
2023/12/27 05:57:31;;;;;;;47.10;33.22;;;10.80;99.90;;;;;;5066977;28;20033;-80
2023/12/27 05:59:57;;;;;;;46.55;34.15;;;10.80;99.90;;;;;;5069131;28;20417;-78
2023/12/27 06:02:22;;;;;;;43.63;32.60;;;10.80;99.90;;;;;;5066400;28;20063;-80
2023/12/27 06:04:48;;;;;;;42.35;30.98;;;10.80;99.90;;;;;;5070087;28;20021;-80
2023/12/27 06:07:14;;;;;;;43.45;31.42;;;10.80;99.90;;;;;;5056414;28;20412;-80
2023/12/27 06:09:42;;;;;;;44.53;33.35;;;10.80;99.90;;;;;;5053027;28;20056;-80
2023/12/27 06:12:08;;;;;;;39.50;30.20;;;10.80;99.90;;;;;;5069666;28;20024;-79
2023/12/27 06:14:35;;;;;;;44.60;33.10;;;10.80;99.90;;;;;;5072078;28;20477;-80
2023/12/27 06:17:01;;;;;;;41.67;30.60;;;10.80;99.90;;;;;;5057065;28;20043;-80
2023/12/27 06:19:28;;;;;;;39.00;29.58;;;10.80;99.90;;;;;;5065402;28;20449;-77
2023/12/27 06:21:54;;;;;;;45.10;34.65;;;10.80;99.90;;;;;;5047019;28;20021;-77
2023/12/27 06:24:20;;;;;;;38.30;27.58;;;10.70;99.90;;;;;;5071614;28;20036;-77
2023/12/27 06:26:46;;;;;;;42.33;30.10;;;10.70;99.90;;;;;;5066173;28;20054;-77
2023/12/27 06:29:12;;;;;;;39.22;28.88;;;10.70;99.90;;;;;;5067381;28;20025;-77
2023/12/27 06:31:37;;;;;;;38.42;28.48;;;10.70;99.90;;;;;;5064201;28;20028;-77
2023/12/27 06:34:03;;;;;;;45.50;31.95;;;10.70;99.90;;;;;;5039617;28;20041;-77
2023/12/27 06:36:29;;;;;;;37.78;25.25;;;10.60;99.90;;;;;;5061523;28;20037;-77
2023/12/27 06:38:54;;;;;;;40.55;28.77;;;10.60;99.90;;;;;;5064514;28;20029;-80
2023/12/27 06:41:20;;;;;;;38.00;27.77;;;10.60;99.90;;;;;;5072606;28;20031;-80
2023/12/27 06:43:46;;;;;;;40.15;29.23;;;10.60;99.90;;;;;;5072822;28;20024;-80
2023/12/27 06:46:12;;;;;;;43.95;32.17;;;10.60;99.90;;;;;;5074962;28;20029;-81
2023/12/27 06:48:39;;;;;;;37.40;26.50;;;10.60;99.90;;;;;;5074615;28;20020;-81
2023/12/27 06:51:06;;;;;;;41.28;27.38;;;10.60;99.90;;;;;;5060450;28;21001;-78
2023/12/27 06:53:32;;;;;;;41.08;29.52;;;10.60;99.90;;;;;;5074548;28;20024;-78
2023/12/27 06:56:00;;;;;;;42.85;29.48;;;10.60;99.90;;;;;;5069883;28;20052;-78
2023/12/27 06:58:26;;;;;;;36.67;26.77;;;10.70;99.90;;;;;;5077070;28;20029;-79
2023/12/27 07:00:52;;;;;;;38.70;29.42;;;10.70;99.90;;;;;;5071133;28;20552;-79
2023/12/27 07:03:17;;;;;;;42.72;30.45;;;10.70;99.90;;;;;;5058760;28;20025;-79
2023/12/27 07:05:43;;;;;;;35.35;27.50;;;10.70;99.90;;;;;;5058580;28;20059;-79
2023/12/27 07:08:09;;;;;;;36.97;27.60;;;10.70;99.90;;;;;;5065749;28;20049;-79
2023/12/27 07:10:34;;;;;;;37.20;27.33;;;10.80;99.90;;;;;;5067216;28;20479;-79
2023/12/27 07:13:01;;;;;;;38.90;27.90;;;10.80;99.90;;;;;;5070628;28;20032;-79
2023/12/27 07:15:27;;;;;;;36.42;27.20;;;10.80;99.90;;;;;;5071519;28;20029;-79
2023/12/27 07:17:53;;;;;;;36.65;27.73;;;10.80;99.90;;;;;;5067389;28;20023;-82
2023/12/27 07:20:18;;;;;;;36.35;27.95;;;10.80;99.90;;;;;;5057443;28;20071;-81
2023/12/27 07:22:45;;;;;;;40.70;28.90;;;10.80;99.90;;;;;;5064379;28;20040;-81
2023/12/27 07:25:11;;;;;;;36.10;27.92;;;10.80;99.90;;;;;;5065364;28;20025;-81
2023/12/27 07:27:36;;;;;;;35.50;26.85;;;10.80;99.90;;;;;;5067930;28;20082;-81
2023/12/27 07:30:04;;;;;;;38.65;28.23;;;10.80;99.90;;;;;;5064192;28;20419;-81
2023/12/27 07:32:30;;;;;;;30.95;23.08;;;10.80;99.90;;;;;;5073226;28;20082;-80
2023/12/27 07:34:57;;;;;;;35.42;26.88;;;10.80;99.90;;;;;;5068938;28;20020;-79
2023/12/27 07:37:26;;;;;;;34.65;25.85;;;10.90;99.90;;;;;;5067541;28;20039;-79
2023/12/27 07:39:52;;;;;;;37.63;28.95;;;10.90;99.90;;;;;;5073353;28;20020;-79
2023/12/27 07:42:19;;;;;;;36.95;27.42;;;11.00;99.90;;;;;;5070426;28;20024;-80
2023/12/27 07:44:45;;;;;;;39.05;29.42;;;11.00;99.90;;;;;;5065481;28;20019;-78
2023/12/27 07:47:10;;;;;;;34.75;26.02;;;11.00;99.90;;;;;;5066116;28;20037;-80
2023/12/27 07:49:37;;;;;;;43.55;29.50;;;10.90;99.90;;;;;;5060477;28;20056;-78
2023/12/27 07:52:03;;;;;;;36.30;26.95;;;11.00;99.90;;;;;;5056481;28;20376;-78
2023/12/27 07:54:31;;;;;;;38.22;28.45;;;11.00;99.90;;;;;;5065248;28;20024;-78
2023/12/27 07:56:57;;;;;;;36.08;28.65;;;11.00;99.90;;;;;;5065054;28;20032;-78
2023/12/27 07:59:23;;;;;;;39.88;28.75;;;11.00;99.90;;;;;;5065200;28;20029;-78
2023/12/27 08:01:48;;;;;;;33.65;24.67;;;11.00;99.80;;;;;;5068773;28;20024;-78
2023/12/27 08:04:14;;;;;;;32.05;25.55;;;11.10;99.90;;;;;;5059560;28;20686;-78
2023/12/27 08:06:40;;;;;;;35.25;27.45;;;11.10;99.80;;;;;;5058867;28;20040;-77
2023/12/27 08:09:05;;;;;;;34.88;22.55;;;11.10;99.60;;;;;;5044517;28;20032;-77
2023/12/27 08:11:31;;;;;;;33.92;26.52;;;11.10;99.50;;;;;;5062677;28;20021;-76
2023/12/27 08:13:58;;;;;;;34.22;24.50;;;11.10;99.50;;;;;;5065653;28;20103;-78
2023/12/27 08:16:24;;;;;;;37.20;25.67;;;11.10;99.40;;;;;;5052086;28;20040;-78
2023/12/27 08:18:50;;;;;;;30.63;21.80;;;11.10;99.50;;;;;;5064400;28;20111;-78
2023/12/27 08:21:16;;;;;;;35.60;25.90;;;11.10;99.30;;;;;;5081250;28;20496;-78
2023/12/27 08:23:42;;;;;;;33.25;24.05;;;11.10;99.30;;;;;;5068496;28;20024;-78
2023/12/27 08:26:09;;;;;;;31.77;24.55;;;11.10;99.40;;;;;;5052587;28;20032;-78
2023/12/27 08:28:35;;;;;;;36.28;26.80;;;11.10;99.30;;;;;;5038851;28;20039;-78
2023/12/27 08:31:04;;;;;;;34.00;25.42;;;11.20;99.20;;;;;;5056202;28;20033;-78
2023/12/27 08:33:30;;;;;;;28.85;21.38;;;11.10;99.30;;;;;;5074103;28;20028;-77
2023/12/27 08:35:57;;;;;;;30.67;22.35;;;11.10;99.00;;;;;;5078013;28;20074;-78
2023/12/27 08:38:24;;;;;;;30.75;24.05;;;11.10;99.10;;;;;;5076827;28;20423;-78
2023/12/27 08:40:50;;;;;;;35.65;25.63;;;11.10;99.20;;;;;;5083340;28;20016;-78
2023/12/27 08:43:18;;;;;;;31.73;22.95;;;11.10;99.00;;;;;;5094460;28;20065;-78
2023/12/27 08:45:45;;;;;;;23.35;17.30;;;11.10;99.00;;;;;;5093863;28;20039;-78
2023/12/27 08:48:11;;;;;;;29.63;20.42;;;11.10;98.70;;;;;;5073566;28;20032;-77
2023/12/27 08:50:38;;;;;;;25.77;18.75;;;11.00;98.60;;;;;;5055903;28;20040;-78
2023/12/27 08:53:04;;;;;;;27.52;21.58;;;11.00;98.70;;;;;;5073365;28;20016;-77
2023/12/27 08:55:30;;;;;;;26.95;20.38;;;11.10;98.80;;;;;;5090251;28;20162;-77
2023/12/27 08:57:59;;;;;;;26.02;20.50;;;11.10;98.80;;;;;;5087936;28;20108;-78
2023/12/27 09:00:24;;;;;;;30.75;20.33;;;11.10;98.90;;;;;;5072662;28;20099;-78
2023/12/27 09:02:50;;;;;;;28.27;21.52;;;11.10;98.80;;;;;;5073584;28;20529;-78
2023/12/27 09:05:16;;;;;;;32.72;22.67;;;11.20;98.90;;;;;;5055635;28;20427;-78
2023/12/27 09:07:41;;;;;;;31.05;23.38;;;11.20;98.90;;;;;;5071931;28;20447;-78
2023/12/27 09:10:07;;;;;;;28.02;21.17;;;11.20;98.80;;;;;;5068926;28;20058;-78
2023/12/27 09:12:33;;;;;;;32.67;24.65;;;11.30;98.80;;;;;;5071616;28;20024;-77
2023/12/27 09:14:58;;;;;;;32.40;22.77;;;11.30;98.80;;;;;;5064376;28;20029;-78
2023/12/27 09:17:24;;;;;;;33.85;24.27;;;11.30;98.70;;;;;;5054678;28;20021;-78
2023/12/27 09:19:50;;;;;;;28.23;21.50;;;11.30;98.80;;;;;;5066052;28;20075;-78
2023/12/27 09:22:15;;;;;;;33.03;22.15;;;11.30;98.80;;;;;;5053257;28;20112;-77
2023/12/27 09:24:41;;;;;;;32.53;24.10;;;11.40;98.90;;;;;;5062137;28;20090;-77
2023/12/27 09:27:07;;;;;;;32.38;23.48;;;11.40;98.80;;;;;;5053596;28;20032;-78
2023/12/27 09:29:33;;;;;;;30.13;21.88;;;11.50;98.70;;;;;;5063229;28;20041;-77
2023/12/27 09:31:59;;;;;;;32.63;22.50;;;11.50;98.70;;;;;;5062661;28;20365;-78
2023/12/27 09:34:25;;;;;;;26.63;20.65;;;11.60;98.60;;;;;;5071321;28;20112;-77
2023/12/27 09:36:50;;;;;;;28.17;21.05;;;11.60;98.50;;;;;;5073187;28;20423;-78
2023/12/27 09:39:16;;;;;;;28.27;21.95;;;11.60;98.50;;;;;;5059245;28;20032;-77
2023/12/27 09:41:42;;;;;;;31.15;22.45;;;11.70;98.50;;;;;;5035350;28;20021;-77
2023/12/27 09:44:10;;;;;;;31.63;24.35;;;11.70;98.50;;;;;;5057925;28;20029;-77
2023/12/27 09:46:38;;;;;;;32.88;23.50;;;11.80;98.50;;;;;;5054253;28;20471;-77
2023/12/27 09:49:04;;;;;;;40.72;22.65;;;11.80;98.40;;;;;;5062144;28;20029;-77
2023/12/27 09:51:30;;;;;;;28.25;21.05;;;11.80;98.40;;;;;;5045170;28;20565;-78
2023/12/27 09:53:56;;;;;;;29.23;21.95;;;11.80;98.40;;;;;;5063841;28;20024;-78
2023/12/27 09:56:22;;;;;;;29.30;21.00;;;11.90;98.40;;;;;;5059672;28;20508;-78
2023/12/27 09:58:56;;;;;;;28.30;21.88;;;11.90;98.20;;;;;;5068172;28;20031;-78
2023/12/27 10:01:26;;;;;;;27.27;20.58;;;11.90;98.20;;;;;;5069932;28;20021;-78
2023/12/27 10:04:03;;;;;;;29.90;20.98;;;11.90;98.10;;;;;;5078844;28;20020;-78
2023/12/27 10:06:43;;;;;;;32.95;22.60;;;12.00;98.10;;;;;;5054223;28;20055;-78
2023/12/27 10:09:09;;;;;;;30.52;21.02;;;12.00;98.10;;;;;;5074436;28;20040;-78
2023/12/27 10:11:35;;;;;;;26.45;19.80;;;12.00;98.00;;;;;;5062836;28;20412;-78
2023/12/27 10:14:04;;;;;;;29.23;20.73;;;12.00;97.90;;;;;;5073064;28;20063;-78
2023/12/27 10:16:30;;;;;;;25.42;18.13;;;12.10;97.90;;;;;;5068546;28;20117;-78
2023/12/27 10:18:57;;;;;;;25.10;19.63;;;12.10;97.70;;;;;;5051918;28;20071;-78
2023/12/27 10:21:23;;;;;;;26.92;19.60;;;12.10;97.70;;;;;;5062933;28;20017;-78
2023/12/27 10:23:48;;;;;;;24.42;18.23;;;12.10;97.20;;;;;;5062646;28;20027;-77
2023/12/27 10:26:14;;;;;;;22.95;16.27;;;12.10;97.20;;;;;;5061152;28;20033;-78
2023/12/27 10:28:40;;;;;;;23.65;16.48;;;12.10;97.00;;;;;;5069844;28;20036;-77
2023/12/27 10:31:06;;;;;;;27.77;17.17;;;12.10;97.00;;;;;;5075118;28;20033;-86
2023/12/27 10:33:45;;;;;;;22.42;16.45;;;12.10;97.00;;;;;;5066930;28;20476;-78
2023/12/27 10:36:10;;;;;;;29.05;18.85;;;12.20;97.00;;;;;;5068893;28;20028;-86
2023/12/27 10:38:38;;;;;;;17.50;13.57;;;12.20;97.00;;;;;;5076628;28;20503;-85
2023/12/27 10:41:05;;;;;;;26.42;15.07;;;12.30;96.70;;;;;;5076592;28;20020;-85
2023/12/27 10:43:34;;;;;;;20.08;13.77;;;12.20;96.50;;;;;;5076725;28;20025;-85
2023/12/27 10:46:06;;;;;;;16.80;12.98;;;12.30;96.40;;;;;;5057432;28;20036;-85
2023/12/27 10:48:34;;;;;;;17.98;12.55;;;12.30;96.30;;;;;;5056395;28;20464;-85
2023/12/27 10:50:59;;;;;;;17.67;11.73;;;12.40;95.90;;;;;;5056293;28;20366;-85
2023/12/27 10:53:29;;;;;;;15.55;11.73;;;12.40;95.80;;;;;;5056369;28;20043;-85
2023/12/27 10:55:58;;;;;;;15.73;11.23;;;12.40;95.60;;;;;;5068051;28;20370;-79
2023/12/27 10:58:25;;;;;;;18.20;12.60;;;12.40;95.50;;;;;;5040143;28;20025;-78
2023/12/27 11:00:51;;;;;;;17.10;11.20;;;12.40;95.40;;;;;;5058316;28;20025;-79
2023/12/27 11:03:19;;;;;;;16.85;11.50;;;12.50;95.30;;;;;;5061187;28;20035;-78
2023/12/27 11:05:45;;;;;;;13.63;11.10;;;12.50;95.30;;;;;;5056989;28;20092;-79
2023/12/27 11:08:13;;;;;;;18.00;12.02;;;12.60;95.30;;;;;;5058318;28;20052;-80
2023/12/27 11:10:40;;;;;;;16.40;11.68;;;12.60;95.20;;;;;;5067782;28;20028;-80
2023/12/27 11:13:09;;;;;;;16.80;12.20;;;12.60;95.20;;;;;;5043228;28;20119;-80
2023/12/27 11:15:39;;;;;;;14.70;11.43;;;12.70;95.10;;;;;;5060793;28;20063;-80
2023/12/27 11:18:08;;;;;;;18.23;13.15;;;12.70;95.30;;;;;;5057803;28;20020;-80
2023/12/27 11:20:34;;;;;;;17.20;12.82;;;12.70;95.00;;;;;;5077681;28;20040;-80
2023/12/27 11:23:00;;;;;;;16.17;12.30;;;12.70;95.00;;;;;;5073652;28;20089;-80
2023/12/27 11:25:26;;;;;;;18.00;13.48;;;12.80;95.10;;;;;;5064632;28;20520;-80
2023/12/27 11:27:52;;;;;;;15.95;12.75;;;12.80;95.00;;;;;;5046018;28;20026;-80
2023/12/27 11:30:21;;;;;;;20.40;12.98;;;12.80;95.00;;;;;;5072391;28;20055;-80
2023/12/27 11:32:47;;;;;;;17.60;12.73;;;12.80;95.00;;;;;;5073172;28;20107;-80
2023/12/27 11:35:42;;;;;;;19.85;13.63;;;12.80;95.00;;;;;;5081962;28;20110;-80
2023/12/27 11:38:24;;;;;;;18.52;13.60;;;12.80;94.80;;;;;;5060937;28;20051;-80
2023/12/27 11:40:57;;;;;;;18.08;13.63;;;12.80;94.80;;;;;;5061115;28;20056;-80
2023/12/27 11:43:25;;;;;;;20.10;13.05;;;12.80;94.70;;;;;;5072137;28;20029;-80
2023/12/27 11:46:06;;;;;;;18.05;13.13;;;12.80;94.70;;;;;;5060629;28;20488;-80
2023/12/27 11:48:41;;;;;;;19.48;13.95;;;12.80;94.70;;;;;;5073614;28;20032;-80
2023/12/27 11:51:33;;;;;;;15.85;11.77;;;12.80;94.80;;;;;;5075247;28;20038;-80
2023/12/27 11:53:59;;;;;;;20.33;14.00;;;12.90;94.70;;;;;;5075369;28;20032;-80
2023/12/27 11:56:32;;;;;;;22.20;14.27;;;12.90;94.70;;;;;;5067493;28;20124;-80
2023/12/27 11:59:02;;;;;;;21.60;14.95;;;12.90;94.80;;;;;;5068311;28;20029;-80
2023/12/27 12:01:29;;;;;;;22.60;15.07;;;12.90;94.80;;;;;;5068416;28;20036;-80
2023/12/27 12:04:07;;;;;;;20.05;14.65;;;12.90;94.80;;;;;;5070463;28;20027;-80
2023/12/27 12:06:54;;;;;;;21.20;15.18;;;13.00;94.90;;;;;;5076981;22;20041;-84
2023/12/27 12:09:37;;;;;;;19.83;13.93;;;13.00;94.90;;;;;;5062373;28;20533;-84
2023/12/27 12:12:23;;;;;;;21.08;14.35;;;13.00;94.90;;;;;;5040860;28;20025;-84
2023/12/27 12:14:53;;;;;;;20.92;13.32;;;13.00;94.90;;;;;;5060877;28;20090;-84
2023/12/27 12:17:22;;;;;;;19.98;14.88;;;13.00;94.80;;;;;;5065564;28;20037;-84
2023/12/27 12:19:49;;;;;;;18.05;14.73;;;13.10;94.80;;;;;;5071109;28;20094;-85
2023/12/27 12:22:16;;;;;;;20.65;14.75;;;13.10;94.70;;;;;;5071422;28;20032;-85
2023/12/27 12:24:43;;;;;;;21.23;14.98;;;13.10;94.60;;;;;;5055572;28;20070;-85
2023/12/27 12:27:10;;;;;;;26.27;16.48;;;13.10;94.60;;;;;;5050512;28;20032;-89